Weather observations for the past three days for
Cheboygan, Cheboygan County Airport
Imperial (Metric)
Date Time (edt) Wind (mph) Vis. (mi.) Weather Sky Cond. Temperature (ºF) Relative Humidity Wind Chill (°F) Heat Index (°F) Pressure Precipitation (in)
Air Dwpt 6 hour altimeter (in) sea level (mb) 1 hr 3 hr 6 hr
Max. Min.
06 08:35 W 8 10.00 Mostly Cloudy BKN050 41 26.6 57% 36 29.87 0.0
06 08:15 W 7 10.00 Fair CLR 37.4 28.4 70% 33 29.87 0.0
06 07:55 SW 6 10.00 A Few Clouds FEW049 33.8 26.6 36.7 29.1 75% 29 29.86 0.0
06 07:35 SW 7 10.00 A Few Clouds FEW049 32 24.8 75% 26 29.85 0.0
06 07:15 SW 6 10.00 Mostly Cloudy BKN049 32 24.8 75% 27 29.85 0.0
06 06:55 SW 5 10.00 Fair CLR 30.2 24.8 80% 26 29.85 0.0
06 06:36 SW 5 10.00 Fair CLR 30.2 24.8 80% 26 29.84 0.0
06 06:15 SW 5 10.00 Fair CLR 30.2 24.8 80% 26 29.84 0.0
06 05:55 W 5 10.00 Fair CLR 30.2 23 75% 26 29.84 0.0
06 05:35 W 5 10.00 Fair CLR 32 23 69% 28 29.83 0.0
06 05:15 W 6 10.00 Fair CLR 32 23 69% 27 29.84 0.0
06 04:55 W 5 10.00 Fair CLR 32 23 69% 28 29.84 0.0
06 04:35 W 5 10.00 Fair CLR 32 24.8 75% 28 29.84 0.0
06 04:16 W 5 10.00 Fair CLR 33.8 23 65% 30 29.84 0.0
06 03:55 W 7 10.00 Partly Cloudy SCT070 32 23 69% 26 29.84 0.0
06 03:35 W 7 10.00 Overcast OVC070 33.8 24.8 70% 28 29.84 0.0
06 03:15 NW 7 10.00 Overcast OVC070 35.6 24.8 65% 31 29.84 0.0
06 02:55 W 3 10.00 Overcast OVC070 35.6 24.8 65% 29.84 0.0
06 02:35 W 6 10.00 Overcast OVC070 37.4 23 56% 33 29.84 0.0
06 02:15 NW 6 10.00 Overcast OVC070 35.6 24.8 65% 31 29.84 0.0
06 01:56 NW 6 10.00 Overcast OVC070 37.4 23 56% 33 29.85 0.0
06 01:35 NW 10 10.00 Overcast OVC070 37.4 24.8 60% 31 29.85 0.0
06 01:15 NW 9 10.00 Overcast OVC070 37.4 24.8 60% 31 29.84 0.0
06 00:55 Vrbl 6 10.00 Overcast OVC070 37.4 24.8 60% 33 29.85 0.0
06 00:35 NW 5 10.00 Overcast FEW050 OVC070 37.4 24.8 60% 34 29.84 0.0
06 00:12 NW 5 10.00 Overcast OVC070 37.4 24.8 60% 34 29.84 0.0
05 23:55 N 7 10.00 Overcast FEW038 OVC070 37.4 24.8 60% 33 29.83 0.0
05 23:36 NW 5 10.00 Overcast SCT038 OVC070 37.4 24.8 60% 34 29.83 0.0
05 23:15 N 8 10.00 Overcast FEW036 OVC070 37.4 24.8 60% 32 29.83 0.0
05 22:55 N 12 10.00 Overcast FEW034 OVC070 39.2 26.6 61% 33 29.83 0.0
05 22:35 N 9 10.00 Overcast FEW034 OVC070 39.2 28.4 65% 34 29.82 0.0
05 22:15 N 7 10.00 Overcast OVC070 39.2 30.2 70% 35 29.81 0.0
05 21:55 N 6 10.00 Overcast OVC070 39.2 30.2 70% 36 29.81 0.0
05 21:35 N 8 10.00 Overcast SCT026 OVC070 39.2 30.2 70% 34 29.8 0.0
05 21:16 N 12 10.00 Overcast SCT026 OVC070 39.2 30.2 70% 33 29.79 0.0
05 20:55 N 9 10.00 Mostly Cloudy FEW024 BKN070 39.2 30.2 70% 34 29.78 0.0
05 20:35 N 8 10.00 Fair CLR 39.2 30.2 70% 34 29.78 0.0
05 20:15 N 10 10.00 Fair CLR 41 32 70% 35 29.78 0.0
05 19:55 N 9 10.00 Fair CLR 41 32 54.7 42.1 70% 36 29.77 0.0
05 19:35 N 12 10.00 Fair CLR 42.8 32 66% 37 29.76 0.0
05 19:15 N 12 10.00 Fair CLR 42.8 32 66% 37 29.76 0.0
05 18:56 N 13 G 20 10.00 Fair CLR 44.6 33.8 66% 39 29.75 0.0
05 18:35 N 14 G 18 10.00 Fair CLR 48.2 30.2 50% 43 29.74 0.0
05 18:15 NW 13 10.00 Fair CLR 48.2 32 54% 43 29.74 0.0
05 17:55 N 14 10.00 A Few Clouds FEW060 50 32 50% 45 29.72 0.0
05 17:35 NW 16 G 25 10.00 Partly Cloudy SCT060 51.8 26.6 38% 29.72 0.0
05 17:15 W 15 G 28 10.00 Partly Cloudy SCT060 51.8 23 32% 29.72 0.0
05 16:55 W 23 G 28 10.00 Mostly Cloudy and Breezy BKN060 53.6 23 30% 29.71 0.0
05 16:36 W 16 G 24 10.00 Mostly Cloudy BKN060 53.6 24.8 33% 29.71 0.0
05 16:15 W 16 G 23 10.00 Partly Cloudy SCT060 53.6 24.8 33% 29.7 0.0
05 15:55 W 23 G 29 10.00 Partly Cloudy and Breezy SCT060 53.6 24.8 33% 29.7 0.0
05 15:35 W 15 G 28 10.00 A Few Clouds FEW060 53.6 24.8 33% 29.7 0.0
05 15:15 W 21 G 26 10.00 A Few Clouds and Breezy FEW060 53.6 23 30% 29.7 0.0
05 14:55 W 23 G 28 10.00 A Few Clouds and Breezy FEW060 51.8 23 32% 29.69 0.0
05 14:35 W 16 G 32 10.00 Partly Cloudy SCT060 53.6 24.8 33% 29.69 0.0
05 14:16 W 22 G 28 10.00 Partly Cloudy and Breezy SCT060 51.8 24.8 35% 29.68 0.0
05 13:55 W 21 G 29 10.00 Mostly Cloudy and Breezy BKN060 53.6 26.6 53.4 41.4 35% 29.68 0.0
05 13:35 W 16 G 28 10.00 Partly Cloudy SCT060 51.8 26.6 38% 29.67 0.0
05 13:15 W 24 G 31 10.00 Fair and Breezy CLR 51.8 26.6 38% 29.68 0.0
05 12:55 NW 22 G 31 10.00 A Few Clouds and Breezy FEW055 FEW065 FEW080 50 26.6 40% 44 29.68 0.0
05 12:35 W 22 G 28 10.00 Partly Cloudy and Breezy SCT048 SCT055 SCT080 50 28.4 43% 44 29.68 0.0
05 12:15 NW 18 G 29 10.00 Mostly Cloudy BKN046 BKN055 BKN080 51.8 28.4 41% 29.68 0.0
05 11:56 W 17 G 25 10.00 Mostly Cloudy BKN044 50 28.4 43% 45 29.68 0.0
05 11:35 W 14 G 18 10.00 Mostly Cloudy BKN042 BKN048 48.2 30.2 50% 43 29.68 0.0
05 11:15 W 18 G 24 10.00 Partly Cloudy SCT040 SCT045 SCT075 48.2 28.4 46% 42 29.67 0.0
05 10:55 W 14 10.00 Mostly Cloudy BKN075 46.4 28.4 50% 41 29.67 0.0
05 10:35 W 12 G 20 10.00 Overcast FEW034 OVC075 46.4 28.4 50% 42 29.66 0.0
05 10:15 W 12 10.00 Overcast OVC075 44.6 30.2 57% 39 29.66 0.0
05 09:55 W 13 G 17 10.00 Overcast OVC075 44.6 30.2 57% 39 29.65 0.0
05 09:36 W 17 G 24 10.00 Overcast OVC075 42.8 30.2 61% 35 29.64 0.0
05 09:15 NW 17 10.00 Overcast OVC075 42.8 30.2 61% 35 29.62 0.0
05 08:55 NW 13 10.00 Overcast SCT027 OVC075 42.8 30.2 61% 37 29.63 0.0
05 08:35 W 12 10.00 Overcast BKN027 OVC075 42.8 32 66% 37 29.62 0.0
05 08:15 W 12 10.00 Overcast OVC075 42.8 32 66% 37 29.62 0.0
05 07:55 NW 10 10.00 Overcast OVC075 42.8 32 46.4 37.4 66% 38 29.61 0.0
05 07:35 NW 6 10.00 Overcast OVC075 41 32 70% 38 29.61 0.0
05 07:16 W 6 10.00 Mostly Cloudy BKN075 41 30.2 66% 38 29.6 0.0
05 06:55 W 5 10.00 Partly Cloudy SCT075 37.4 30.2 75% 34 29.59 0.0
05 06:35 W 6 10.00 Fair CLR 37.4 30.2 75% 33 29.58 0.0
05 06:15 W 6 10.00 Fair CLR 39.2 30.2 70% 36 29.57 0.0
05 05:55 W 7 10.00 Fair CLR 37.4 30.2 75% 33 29.56 0.0
05 05:35 NW 7 10.00 A Few Clouds FEW065 FEW080 39.2 30.2 70% 35 29.56 0.0
05 05:15 W 7 10.00 Partly Cloudy SCT065 SCT080 41 30.2 66% 37 29.56 0.0
05 04:56 NW 8 10.00 Overcast OVC065 42.8 32 66% 39 29.56 0.0
05 04:35 NW 9 10.00 Overcast OVC065 42.8 30.2 61% 38 29.55 0.0
05 04:15 NW 12 G 17 10.00 Overcast OVC065 42.8 30.2 61% 37 29.55 0.0
05 03:55 NW 15 G 20 10.00 Overcast OVC065 44.6 30.2 57% 38 29.54 0.0
05 03:35 NW 18 G 23 10.00 Overcast OVC065 44.6 30.2 57% 37 29.54 0.0
05 03:15 NW 10 10.00 Overcast OVC065 44.6 32 61% 40 29.54 0.0
05 02:55 NW 10 10.00 Overcast OVC065 46.4 32 57% 42 29.53 0.0
05 02:36 NW 10 10.00 Overcast OVC055 46.4 32 57% 42 29.53 0.0
05 02:15 NW 13 G 20 10.00 Overcast OVC055 46.4 30.2 53% 41 29.53 0.0
05 01:55 W 14 10.00 Overcast OVC055 46.4 33.8 49.5 44.4 62% 41 29.52 0.0
05 01:35 NW 8 10.00 Overcast OVC055 46.4 32 57% 43 29.51 0.0
05 01:15 NW 8 10.00 Overcast OVC055 46.4 33.8 62% 43 29.51 0.0
05 00:55 NW 8 10.00 Overcast OVC055 46.4 33.8 62% 43 29.5 0.0
05 00:35 NW 10 10.00 Overcast OVC055 46.4 33.8 62% 42 29.49 0.0
05 00:16 NW 9 10.00 Mostly Cloudy BKN055 BKN090 46.4 35.6 66% 42 29.49 0.0
04 23:55 NW 8 10.00 Partly Cloudy FEW055 SCT090 SCT120 44.6 35.6 71% 41 29.49 0.0
04 23:35 N 8 10.00 Partly Cloudy SCT055 SCT120 44.6 35.6 71% 41 29.48 0.0
04 23:15 N 5 10.00 Mostly Cloudy BKN065 44.6 37.4 76% 43 29.47 0.0
04 22:55 NW 3 10.00 Overcast BKN050 OVC065 46.4 37.4 71% 29.47 0.0
04 22:35 N 6 10.00 Overcast BKN050 OVC075 46.4 39.2 76% 44 29.47 0.0
04 22:15 N 3 10.00 Light Rain BKN047 BKN065 OVC085 46.4 41 82% 29.46 0.0
04 21:56 NE 5 10.00 Overcast BKN043 OVC065 46.4 41 82% 45 29.46 0.0
04 21:35 NE 3 10.00 Overcast BKN041 BKN065 OVC080 48.2 41 76% 29.45 0.0
04 21:15 NE 7 10.00 Overcast SCT039 OVC075 48.2 41 76% 46 29.44 0.0
04 20:55 NE 8 10.00 Overcast FEW065 OVC085 48.2 42.8 82% 45 29.43 0.0
04 20:35 E 5 9.00 Light Rain SCT050 OVC065 48.2 42.8 82% 47 29.43 0.0
04 20:15 NE 2 10.00 Light Rain BKN048 OVC055 50 42.8 76% 29.43 0.0
04 19:55 Vrbl 3 8.00 Light Rain BKN050 OVC065 48.2 42.8 76.1 48.7 82% 29.42 0.0
04 19:36 NE 6 10.00 Light Rain OVC065 50 42.8 76% 48 29.41 0.0
04 19:15 N 8 10.00 Light Rain OVC075 50 42.8 76% 47 29.39 0.0
04 18:55 NW 13 10.00 Light Rain BKN075 OVC085 51.8 41 67% 29.37 0.0
04 18:35 NW 12 10.00 Light Rain OVC080 53.6 42.8 67% 29.36 0.0
04 18:15 NW 14 G 22 10.00 Light Rain OVC080 53.6 41 63% 29.34 0.0
04 17:55 NW 17 G 24 10.00 Overcast OVC080 57.2 37.4 48% 29.32 0.0
04 17:35 NW 15 G 26 10.00 Overcast BKN080 OVC110 64.4 35.6 34% 29.3 0.0
04 17:16 SW 21 G 33 10.00 Mostly Cloudy and Breezy SCT090 BKN110 71.6 37.4 29% 29.29 0.0
04 16:55 SW 15 G 32 10.00 Mostly Cloudy BKN090 BKN110 73.4 37.4 27% 29.29 0.0
04 16:35 SW 20 G 28 10.00 Overcast OVC090 71.6 35.6 27% 29.29 0.0
04 16:15 SW 22 G 31 10.00 Mostly Cloudy and Breezy BKN100 BKN120 69.8 35.6 29% 29.29 0.0
04 15:35 SW 20 G 29 9.00 Light Rain FEW031 FEW055 BKN100 68 39.2 35% 29.29 0.0
04 15:15 SW 18 G 35 10.00 Mostly Cloudy BKN100 71.6 33.8 25% 29.29 0.0
04 14:56 SW 25 G 43 10.00 Mostly Cloudy and Breezy FEW055 FEW075 BKN110 73.4 33.8 23% 29.29 0.0
04 14:35 SW 29 G 37 10.00 A Few Clouds and Windy FEW095 FEW120 75.2 33.8 22% 76 29.29 0.0
04 14:15 SW 22 G 40 10.00 Fair and Breezy CLR 73.4 33.8 23% 29.28 0.0
04 13:55 SW 23 G 38 10.00 Fair and Breezy CLR 73.4 33.8 73.9 44.2 23% 29.29 0.0
04 13:35 SW 28 G 44 10.00 Fair and Windy CLR 73.4 35.6 25% 29.3 0.0
04 13:15 SW 28 G 37 10.00 Fair and Windy CLR 71.6 35.6 27% 29.32 0.0
04 12:55 SW 22 G 35 10.00 Fair and Breezy CLR 69.8 35.6 29% 29.33 0.0
04 12:36 SW 22 G 31 10.00 Fair and Breezy CLR 69.8 35.6 29% 29.34 0.0
04 12:15 SW 22 G 32 10.00 Fair and Breezy CLR 69.8 35.6 29% 29.36 0.0
04 11:55 SW 13 G 28 10.00 Fair CLR 68 37.4 33% 29.37 0.0
04 11:35 SW 18 G 24 10.00 Fair CLR 66.2 39.2 37% 29.38 0.0
04 11:15 SW 14 G 22 10.00 Fair CLR 64.4 39.2 40% 29.4 0.0
04 10:55 S 10 10.00 Fair CLR 62.6 42.8 49% 29.4 0.0
04 10:35 S 8 10.00 Fair CLR 59 44.6 59% 29.41 0.0
04 10:15 S 8 10.00 Fair CLR 57.2 44.6 63% 29.42 0.0
04 09:56 S 8 10.00 Fair CLR 53.6 42.8 67% 29.43 0.0
04 09:35 S 7 10.00 Fair CLR 51.8 42.8 72% 29.44 0.0
04 09:15 S 9 10.00 Fair CLR 50 44.6 82% 47 29.45 0.0
04 08:55 S 8 10.00 Fair CLR 48.2 42.8 82% 45 29.46 0.0
04 08:35 S 8 10.00 Fair CLR 46.4 42.8 87% 43 29.47 0.0
04 08:15 S 7 10.00 Fair CLR 44.6 42.8 93% 41 29.47 0.0
04 07:55 S 8 10.00 Fair CLR 44.6 41 44.2 32 87% 41 29.48 0.0
04 07:36 S 9 10.00 Fair CLR 42.8 41 93% 38 29.48 0.0
04 07:15 S 7 10.00 Fair CLR 42.8 41 93% 39 29.49 0.0
04 06:55 S 9 10.00 Fair CLR 41 39.2 93% 36 29.49 0.0
04 06:35 S 9 10.00 Fair CLR 41 39.2 93% 36 29.49 0.0
04 06:15 S 8 10.00 Fair CLR 41 39.2 93% 36 29.5 0.0
04 05:55 S 7 10.00 Fair CLR 41 39.2 93% 37 29.5 0.0
04 05:35 S 6 10.00 Fair CLR 39.2 39.2 100% 36 29.51 0.0
04 05:16 S 7 10.00 Fair CLR 41 39.2 93% 37 29.52 0.0
04 04:55 S 7 10.00 Fair CLR 41 39.2 93% 37 29.53 0.0
04 04:35 S 3 6.00 Fog/Mist CLR 33.8 32 93% 29.53 0.0
04 04:15 SW 2 4.00 Fog/Mist CLR 32 32 100% 29.54 0.0
04 03:55 SW 2 0.75 Fog/Mist VV005 33.8 32 93% 29.55 0.0
04 03:35 SW 2 0.50 Fog VV005 35.6 33.8 93% 29.55 0.0
04 03:15 SW 2 0.25 Fog VV002 35.6 35.6 100% 29.56 0.0
04 02:56 SE 3 1.00 Fog/Mist CLR 35.6 33.8 93% 29.57 0.0
04 02:35 SW 1 0.25 Fog VV002 35.6 35.6 100% 29.58 0.0
04 02:15 SE 1 0.15 Fog VV000 37.4 35.6 93% 29.59 0.0
04 01:55 N 2 0.25 Fog VV002 37.4 35.6 45.3 36.5 93% 29.59 0.0
04 01:35 N 8 0.50 Fog VV005 39.2 37.4 93% 34 29.59 0.0
04 01:15 SW 5 4.00 Fog/Mist CLR 41 39.2 93% 38 29.59 0.0
04 00:55 SW 7 4.00 Fog/Mist FEW001 41 39.2 93% 37 29.59 0.0
04 00:36 S 6 0.25 Fog VV002 39.2 39.2 100% 36 29.59 0.0
04 00:15 Calm 0.15 Fog VV000 37.4 37.4 100% 29.6 0.0
03 23:55 S 3 0.25 Fog BKN065 BKN085 39.2 37.4 93% 29.6 0.0
03 23:35 S 2 1.00 Fog/Mist BKN065 OVC085 41 39.2 93% 29.61 0.0
03 23:15 W 1 5.00 Fog/Mist OVC055 42.8 41 93% 29.62 0.0
03 22:55 NW 2 5.00 Fog/Mist SCT002 OVC050 41 41 100% 29.62 0.0
03 22:35 W 3 0.75 Fog/Mist BKN002 OVC005 41 39.2 93% 29.62 0.0
03 22:16 NW 2 0.75 Fog/Mist BKN002 BKN060 OVC080 41 39.2 93% 29.62 0.0
03 21:55 N 3 2.50 Fog/Mist BKN060 BKN090 BKN110 42.8 41 93% 29.62 0.0
03 21:35 N 6 0.50 Fog OVC060 42.8 41 93% 40 29.61 0.0
03 21:15 E 2 0.75 Fog/Mist BKN060 OVC100 42.8 41 93% 29.61 0.0
03 20:55 SE 1 6.00 Fog/Mist BKN095 44.6 42.8 93% 29.61 0.0
03 20:35 S 5 6.00 Fog/Mist FEW075 BKN095 OVC110 44.6 42.8 93% 43 29.6 0.0
03 20:15 S 5 7.00 Fog/Mist SCT040 BKN065 OVC120 44.6 42.8 93% 43 29.61 0.0
03 19:56 E 3 8.00 Overcast SCT040 BKN050 OVC060 44.6 42.8 93% 29.62 0.0
03 19:35 E 7 7.00 Light Rain SCT038 BKN045 OVC055 44.6 42.8 93% 41 29.62 0.0
03 19:15 NE 3 3.00 Rain Fog/Mist FEW029 BKN039 OVC046 44.6 41 87% 29.63 0.0
03 18:55 N 13 4.00 Rain Fog/Mist SCT030 BKN036 OVC055 44.6 41 87% 39 29.64 0.0 0.05
03 18:35 N 10 10.00 Light Rain BKN055 OVC065 46.4 39.2 76% 42 29.62 0.0
03 18:15 NW 7 G 18 10.00 Overcast OVC065 59 41 51% 29.59 0.0
03 17:55 SW 16 G 21 10.00 Overcast FEW050 OVC065 59 41 51% 29.59 0.0
03 17:36 SW 12 G 18 10.00 Overcast SCT050 OVC065 59 41 51% 29.59 0.0
03 17:15 Vrbl 7 10.00 Overcast BKN050 BKN065 OVC090 51.8 39.2 62% 29.6 0.0
03 16:55 Vrbl 5 10.00 Overcast BKN050 OVC080 53.6 39.2 58% 29.61 0.0
03 16:35 NE 7 10.00 Overcast BKN050 OVC080 50 41 71% 48 29.61 0.0
03 16:15 E 7 10.00 Overcast BKN055 OVC080 51.8 41 67% 29.62 0.0
03 15:55 NE 10 10.00 Overcast OVC060 50 41 71% 46 29.63 0.0
03 15:35 NE 7 10.00 Overcast BKN048 OVC060 48.2 41 76% 46 29.64 0.0
03 15:16 NE 9 10.00 Overcast OVC045 48.2 39.2 71% 45 29.65 0.0
03 14:55 NE 8 10.00 Overcast SCT040 BKN070 OVC090 51.8 41 67% 29.66 0.0
03 14:35 W 8 10.00 Overcast BKN080 BKN090 OVC110 55.4 41 59% 29.66 0.0
03 14:15 W 9 10.00 Mostly Cloudy SCT090 BKN110 55.4 42.8 63% 29.67 0.0
03 13:55 W 9 10.00 Mostly Cloudy FEW028 BKN050 BKN110 53.6 41 55.6 38.1 63% 29.67 0.0
03 13:35 Vrbl 7 10.00 Mostly Cloudy BKN050 BKN070 51.8 44.6 77% 29.68 0.0
03 13:15 S 6 10.00 Mostly Cloudy SCT045 SCT050 BKN070 48.2 42.8 82% 46 29.69 0.0
03 12:56 Vrbl 3 10.00 Overcast OVC045 44.6 41 87% 29.7 0.0
03 12:35 S 3 10.00 Light Rain OVC047 42.8 39.2 87% 29.71 0.0
03 12:15 S 5 10.00 Light Rain OVC049 41 37.4 87% 38 29.71 0.0
03 11:55 Vrbl 2 10.00 Light Rain OVC049 41 37.4 87% 29.72 0.0
03 11:35 E 3 10.00 Light Rain BKN047 OVC055 41 35.6 81% 29.72 0.0
03 11:15 E 3 10.00 Light Rain OVC045 39.2 35.6 87% 29.73 0.0
03 10:55 E 2 10.00 Light Rain OVC045 39.2 33.8 81% 29.74 0.0 0.01
03 10:36 E 3 10.00 Light Rain OVC045 39.2 33.8 81% 29.74 0.0
03 10:15 E 3 10.00 Light Rain FEW042 OVC050 39.2 33.8 81% 29.74 0.0
03 09:55 E 3 10.00 Light Rain SCT042 BKN048 OVC055 39.2 33.8 81% 29.74 0.0
03 09:35 E 2 5.00 Light Rain Haze OVC042 39.2 32 75% 29.75 0.0
03 09:15 NE 3 10.00 Light Rain BKN044 OVC050 39.2 30.2 70% 29.75 0.0
03 08:55 SE 5 10.00 Light Rain FEW044 OVC050 37.4 30.2 75% 34 29.74 0.0
Date Time (edt) Wind (mph) Vis. (mi.) Weather Sky Cond. Air Dwpt Max. Min. Relative Humidity Wind Chill (°F) Heat Index (°F) altimeter (in) sea level (mb) 1 hr 3 hr 6 hr
6 hour
Temperature (ºF) Pressure Precipitation (in)